Time;durP1;ratioP1;P1;durP2;ratioP2;P2;SDS_P1;SDS_P2;PMS_P1;PMS_P2;Temp;Humidity;BMP_temperature;BMP_pressure;BME280_temperature;BME280_humidity;BME280_pressure;Samples;Min_cycle;Max_cycle;Signal;HPM_P1;HPM_P2
2022/12/03 00:00:25;;;;;;;21.60;12.17;;;;;;;3.46;74.02;100447.13;5099636;28;20268;-82
2022/12/03 00:02:50;;;;;;;15.27;11.67;;;;;;;3.50;73.63;100448.38;5102489;27;20303;-82
2022/12/03 00:05:15;;;;;;;18.03;9.27;;;;;;;3.49;74.12;100438.66;5103939;28;20279;-82
2022/12/03 00:07:40;;;;;;;20.07;12.33;;;;;;;3.41;74.04;100434.25;5104158;27;20264;-82
2022/12/03 00:10:06;;;;;;;16.30;9.57;;;;;;;3.40;74.14;100447.94;5103202;28;20917;-85
2022/12/03 00:12:32;;;;;;;21.25;10.70;;;;;;;3.37;74.56;100438.41;5102268;28;20272;-82
2022/12/03 00:14:57;;;;;;;16.93;9.53;;;;;;;3.24;75.06;100439.16;5099821;28;20085;-82
2022/12/03 00:17:22;;;;;;;18.67;10.60;;;;;;;3.31;75.05;100440.03;5100843;28;20255;-82
2022/12/03 00:19:47;;;;;;;14.67;8.77;;;;;;;3.37;74.01;100443.78;5101403;28;20267;-82
2022/12/03 00:22:13;;;;;;;17.38;9.00;;;;;;;3.33;74.49;100445.22;5100148;28;20267;-82
2022/12/03 00:24:38;;;;;;;17.63;8.87;;;;;;;3.33;74.98;100446.06;5101386;28;20049;-81
2022/12/03 00:27:03;;;;;;;18.02;9.52;;;;;;;3.50;74.42;100441.13;5102061;27;20850;-83
2022/12/03 00:29:28;;;;;;;20.33;8.27;;;;;;;3.46;73.75;100433.66;5097953;28;20434;-82
2022/12/03 00:31:54;;;;;;;16.70;9.07;;;;;;;3.53;73.66;100431.81;5102665;28;20253;-83
2022/12/03 00:34:19;;;;;;;17.50;9.03;;;;;;;3.51;74.36;100428.50;5098279;28;20437;-82
2022/12/03 00:36:44;;;;;;;22.65;12.77;;;;;;;3.60;73.85;100427.28;5097964;28;20288;-82
2022/12/03 00:39:09;;;;;;;23.27;12.50;;;;;;;3.39;74.52;100422.84;5099972;28;20043;-81
2022/12/03 00:41:35;;;;;;;22.13;12.52;;;;;;;3.49;73.79;100426.00;5098810;28;20028;-81
2022/12/03 00:44:00;;;;;;;16.27;10.47;;;;;;;3.52;73.33;100423.94;5098285;28;20092;-82
2022/12/03 00:46:25;;;;;;;17.60;11.20;;;;;;;3.39;74.63;100425.53;5097968;28;20277;-82
2022/12/03 00:48:51;;;;;;;15.63;9.20;;;;;;;3.45;74.27;100427.44;5098409;28;20249;-82
2022/12/03 00:51:16;;;;;;;19.33;11.82;;;;;;;3.41;74.72;100433.44;5098119;28;20022;-82
2022/12/03 00:53:41;;;;;;;15.98;9.52;;;;;;;3.60;73.99;100432.66;5098149;28;20023;-82
2022/12/03 00:56:07;;;;;;;19.25;9.98;;;;;;;3.60;74.02;100432.66;5100255;28;20026;-82
2022/12/03 00:58:33;;;;;;;16.75;8.65;;;;;;;3.53;73.71;100431.81;5098894;28;20028;-81
2022/12/03 01:00:58;;;;;;;15.82;9.15;;;;;;;3.44;74.05;100433.03;5099539;28;20062;-81
2022/12/03 01:03:23;;;;;;;21.10;10.90;;;;;;;3.37;74.03;100427.59;5097876;28;20305;-81
2022/12/03 01:05:48;;;;;;;17.10;10.55;;;;;;;3.32;74.31;100428.19;5096263;28;20264;-81
2022/12/03 01:08:14;;;;;;;14.80;8.07;;;;;;;3.31;74.60;100431.09;5100821;28;20040;-82
2022/12/03 01:10:39;;;;;;;17.13;9.55;;;;;;;3.46;74.33;100436.34;5097942;28;20024;-81
2022/12/03 01:13:04;;;;;;;14.30;9.45;;;;;;;3.48;73.67;100445.91;5097284;28;20242;-83
2022/12/03 01:15:29;;;;;;;18.30;9.73;;;;;;;3.35;75.11;100446.69;5097674;28;20067;-82
2022/12/03 01:17:55;;;;;;;16.65;9.45;;;;;;;3.62;73.39;100438.69;5097181;28;20297;-82
2022/12/03 01:20:20;;;;;;;18.08;11.48;;;;;;;3.58;73.71;100437.44;5098416;28;20072;-81
2022/12/03 01:22:45;;;;;;;18.45;10.50;;;;;;;3.48;74.14;100440.50;5099777;28;20032;-83
2022/12/03 01:25:10;;;;;;;16.13;10.00;;;;;;;3.38;74.38;100437.34;5098219;28;20043;-82
2022/12/03 01:27:36;;;;;;;18.00;11.07;;;;;;;3.64;74.17;100437.69;5098937;28;20239;-82
2022/12/03 01:30:03;;;;;;;17.42;9.27;;;;;;;3.55;74.34;100437.84;5099901;27;20244;-83
2022/12/03 01:32:28;;;;;;;18.10;10.43;;;;;;;3.59;74.30;100436.41;5099654;28;20465;-82
2022/12/03 01:34:54;;;;;;;20.37;11.57;;;;;;;3.44;73.66;100430.34;5098240;28;20133;-83
2022/12/03 01:37:22;;;;;;;15.20;10.18;;;;;;;3.34;74.45;100434.22;5099076;28;20759;-83
2022/12/03 01:39:48;;;;;;;17.40;8.73;;;;;;;3.25;74.57;100436.25;5101319;28;20373;-82
2022/12/03 01:42:17;;;;;;;13.68;8.05;;;;;;;3.41;74.53;100434.25;5114134;27;20036;-82
2022/12/03 01:44:43;;;;;;;17.48;10.32;;;;;;;3.45;74.49;100432.84;5099361;28;20114;-82
2022/12/03 01:47:21;;;;;;;18.25;9.57;;;;;;;3.56;73.75;100431.41;5099050;28;20127;-81
2022/12/03 01:49:52;;;;;;;17.25;10.63;;;;;;;3.43;74.28;100434.06;5098786;28;20023;-82
2022/12/03 01:52:21;;;;;;;16.27;10.32;;;;;;;3.57;74.42;100427.69;5123241;27;20548;-81
2022/12/03 01:54:51;;;;;;;17.80;10.68;;;;;;;3.50;73.88;100437.59;5098434;28;20036;-82
2022/12/03 01:57:21;;;;;;;18.65;9.95;;;;;;;3.44;73.82;100438.44;5100188;27;20024;-81
2022/12/03 01:59:46;;;;;;;20.77;10.30;;;;;;;3.19;74.99;100437.06;5098594;28;20061;-81
2022/12/03 02:02:16;;;;;;;18.95;10.95;;;;;;;3.34;74.78;100434.22;5099043;28;20032;-81
2022/12/03 02:04:41;;;;;;;20.45;10.80;;;;;;;3.46;74.59;100428.25;5098220;28;20515;-82
2022/12/03 02:07:18;;;;;;;16.70;9.90;;;;;;;3.47;74.47;100432.63;5099127;28;20117;-82
2022/12/03 02:09:43;;;;;;;18.85;10.32;;;;;;;3.51;73.96;100433.88;5100801;28;20281;-81
2022/12/03 02:12:08;;;;;;;18.75;13.07;;;;;;;3.36;74.79;100436.72;5098874;28;20028;-82
2022/12/03 02:14:34;;;;;;;23.67;13.25;;;;;;;3.44;74.27;100433.84;5098889;28;20095;-81
2022/12/03 02:16:59;;;;;;;23.58;11.18;;;;;;;3.37;74.49;100441.94;5098620;28;20066;-81
2022/12/03 02:19:28;;;;;;;19.35;10.30;;;;;;;3.53;74.44;100439.06;5098792;28;20047;-81
2022/12/03 02:22:31;;;;;;;20.35;11.70;;;;;;;3.46;74.15;100430.94;5098638;28;20028;-82
2022/12/03 02:25:26;;;;;;;21.83;12.05;;;;;;;3.49;74.61;100431.41;5097852;28;20031;-83
2022/12/03 02:27:53;;;;;;;34.22;11.73;;;;;;;3.60;74.30;100435.38;5098189;28;20111;-82
2022/12/03 02:30:21;;;;;;;23.27;12.98;;;;;;;3.49;73.78;100430.56;5097965;28;20070;-82
2022/12/03 02:32:47;;;;;;;20.25;10.43;;;;;;;3.61;73.76;100430.81;5098970;28;20024;-82
2022/12/03 02:35:16;;;;;;;22.33;11.38;;;;;;;3.66;73.39;100430.22;5098809;28;20080;-81
2022/12/03 02:37:43;;;;;;;21.15;12.13;;;;;;;3.53;73.59;100421.03;5099197;28;20023;-82
2022/12/03 02:40:13;;;;;;;25.98;13.48;;;;;;;3.65;73.38;100415.88;5098045;28;20118;-81
2022/12/03 02:42:40;;;;;;;28.08;12.23;;;;;;;3.61;73.09;100418.16;5097448;28;20071;-82
2022/12/03 02:45:14;;;;;;;29.05;14.80;;;;;;;3.56;73.46;100417.94;5099535;28;20468;-82
2022/12/03 02:48:05;;;;;;;26.20;11.60;;;;;;;3.61;73.56;100415.47;5098511;28;20551;-81
2022/12/03 02:50:33;;;;;;;22.17;13.48;;;;;;;3.47;73.67;100411.06;5084976;28;20040;-82
2022/12/03 02:53:03;;;;;;;19.33;10.77;;;;;;;3.50;73.99;100416.03;5097129;28;20031;-82
2022/12/03 02:55:31;;;;;;;23.90;12.82;;;;;;;3.57;73.40;100416.91;5097931;28;20066;-83
2022/12/03 02:57:57;;;;;;;20.60;11.43;;;;;;;3.66;73.47;100411.34;5096465;28;20012;-81
2022/12/03 03:00:22;;;;;;;18.77;11.38;;;;;;;3.49;73.44;100415.22;5097760;28;20038;-81
2022/12/03 03:02:49;;;;;;;24.17;12.38;;;;;;;3.53;73.17;100410.25;5098560;28;20032;-81
2022/12/03 03:05:17;;;;;;;20.27;14.43;;;;;;;3.46;73.33;100414.78;5097461;28;20115;-81
2022/12/03 03:07:43;;;;;;;22.75;10.98;;;;;;;3.49;73.39;100412.53;5099565;28;20407;-81
2022/12/03 03:10:13;;;;;;;22.02;11.55;;;;;;;3.46;72.65;100412.06;5097809;28;20086;-82
2022/12/03 03:12:38;;;;;;;21.92;11.73;;;;;;;3.69;72.40;100409.06;5096606;28;20119;-81
2022/12/03 03:15:05;;;;;;;25.33;12.20;;;;;;;3.59;73.34;100406.75;5095004;28;20429;-81
2022/12/03 03:17:30;;;;;;;23.00;12.48;;;;;;;3.51;73.27;100401.53;5099026;28;20023;-81
2022/12/03 03:19:56;;;;;;;22.77;12.15;;;;;;;3.47;73.46;100402.97;5098164;28;20035;-81
2022/12/03 03:22:28;;;;;;;25.10;14.27;;;;;;;3.45;73.44;100402.34;5098757;28;20369;-81
2022/12/03 03:24:53;;;;;;;27.15;14.13;;;;;;;3.52;72.85;100395.09;5098149;28;20028;-82
2022/12/03 03:27:18;;;;;;;26.00;11.50;;;;;;;3.59;73.17;100397.81;5096123;28;20064;-82
2022/12/03 03:29:44;;;;;;;23.53;12.67;;;;;;;3.52;73.03;100396.97;5096878;28;20032;-80
2022/12/03 03:32:09;;;;;;;25.33;13.95;;;;;;;3.56;72.41;100393.66;5098024;28;20318;-82
2022/12/03 03:34:34;;;;;;;21.65;12.60;;;;;;;3.37;73.18;100396.09;5097998;28;20032;-81
2022/12/03 03:36:59;;;;;;;28.90;14.98;;;;;;;3.52;72.80;100397.78;5097252;28;20105;-81
2022/12/03 03:39:25;;;;;;;26.98;13.32;;;;;;;3.37;73.09;100395.25;5097807;28;20105;-82
2022/12/03 03:41:50;;;;;;;25.00;13.02;;;;;;;3.18;72.73;100404.91;5096979;28;20077;-82
2022/12/03 03:44:15;;;;;;;25.48;12.25;;;;;;;3.06;74.55;100400.09;5098124;28;20035;-82
2022/12/03 03:46:41;;;;;;;29.58;13.63;;;;;;;3.29;73.80;100398.97;5096675;28;20119;-81
2022/12/03 03:49:06;;;;;;;25.58;12.32;;;;;;;3.22;73.35;100392.69;5097006;28;20039;-82
2022/12/03 03:51:34;;;;;;;23.55;12.35;;;;;;;3.27;73.25;100395.63;5098828;28;20035;-81
2022/12/03 03:54:02;;;;;;;28.55;13.75;;;;;;;3.19;73.08;100403.88;5096505;28;20031;-81
2022/12/03 03:56:28;;;;;;;28.52;12.52;;;;;;;3.30;73.00;100400.63;5095688;28;20066;-83
2022/12/03 03:58:54;;;;;;;24.33;12.50;;;;;;;3.36;72.83;100394.41;5100535;28;20660;-81
2022/12/03 04:01:22;;;;;;;25.55;13.02;;;;;;;3.48;72.93;100389.28;5099090;28;20032;-82
2022/12/03 04:03:47;;;;;;;28.85;13.95;;;;;;;3.28;73.24;100386.50;5097347;28;20032;-82
2022/12/03 04:06:12;;;;;;;27.00;14.40;;;;;;;3.24;73.21;100393.31;5098139;28;20622;-81
2022/12/03 04:08:37;;;;;;;22.63;14.57;;;;;;;2.98;73.65;100392.16;5096741;28;20286;-81
2022/12/03 04:13:47;;;;;;;21.00;11.55;;;;;;;3.23;73.04;100394.38;5097487;28;20086;-81
2022/12/03 04:16:12;;;;;;;24.20;12.30;;;;;;;3.32;73.21;100387.75;5098274;28;20584;-82
2022/12/03 04:18:43;;;;;;;24.45;14.05;;;;;;;3.20;73.16;100387.50;5098794;28;20083;-81
2022/12/03 04:23:59;;;;;;;27.05;13.70;;;;;;;3.02;73.79;100382.66;5096280;28;20093;-82
2022/12/03 04:29:08;;;;;;;30.05;14.05;;;;;;;3.13;73.02;100379.38;5096526;28;20084;-83
2022/12/03 04:37:02;;;;;;;24.48;13.13;;;;;;;3.26;72.83;100386.72;5098141;28;20039;-81
2022/12/03 04:39:27;;;;;;;29.83;14.10;;;;;;;3.20;72.96;100378.59;5099711;28;20036;-81
2022/12/03 04:41:53;;;;;;;28.33;15.27;;;;;;;3.17;73.22;100379.84;5100914;28;20353;-82
2022/12/03 04:44:35;;;;;;;29.48;14.27;;;;;;;3.07;73.19;100371.28;5101671;28;20059;-81
2022/12/03 04:47:03;;;;;;;25.95;12.40;;;;;;;3.13;73.41;100378.56;5100913;28;20097;-81
2022/12/03 04:49:28;;;;;;;28.05;13.57;;;;;;;3.02;72.89;100363.78;5099988;28;20039;-82
2022/12/03 04:51:54;;;;;;;32.55;12.77;;;;;;;3.19;72.64;100366.16;5101756;28;20028;-82
2022/12/03 04:54:19;;;;;;;33.63;15.93;;;;;;;3.24;72.35;100369.06;5097962;28;20034;-81
2022/12/03 04:56:44;;;;;;;28.23;13.82;;;;;;;3.21;72.66;100361.41;5101576;28;20058;-81
2022/12/03 04:59:10;;;;;;;22.93;12.73;;;;;;;2.92;73.14;100362.31;5099819;28;20035;-83
2022/12/03 05:01:35;;;;;;;29.08;14.18;;;;;;;3.00;73.83;100347.00;5100087;28;20728;-81
2022/12/03 05:04:00;;;;;;;23.33;11.88;;;;;;;2.91;73.89;100355.25;5100192;28;20342;-82
2022/12/03 05:06:26;;;;;;;31.83;15.02;;;;;;;3.03;73.78;100358.19;5099358;28;20038;-82
2022/12/03 05:08:51;;;;;;;24.42;13.25;;;;;;;3.10;73.61;100363.63;5101100;28;20079;-81
2022/12/03 05:11:16;;;;;;;25.10;14.07;;;;;;;3.29;72.71;100361.22;5099925;28;20035;-81
2022/12/03 05:13:41;;;;;;;26.63;13.60;;;;;;;3.26;72.63;100361.63;5104607;28;20280;-82
2022/12/03 05:16:07;;;;;;;30.70;15.60;;;;;;;3.12;73.28;100360.72;5101627;28;20252;-81
2022/12/03 05:18:32;;;;;;;21.92;11.70;;;;;;;3.20;72.93;100368.66;5101713;28;20432;-81
2022/12/03 05:20:58;;;;;;;27.33;12.00;;;;;;;3.33;72.69;100372.44;5100896;28;20054;-81
2022/12/03 05:23:23;;;;;;;25.58;13.40;;;;;;;3.10;73.43;100358.25;5099405;28;20027;-81
2022/12/03 05:25:48;;;;;;;35.13;14.27;;;;;;;3.15;73.76;100363.84;5100384;28;20408;-82
2022/12/03 05:28:14;;;;;;;27.73;14.48;;;;;;;3.24;72.93;100359.13;5100397;28;20166;-83
2022/12/03 05:30:39;;;;;;;22.83;12.82;;;;;;;3.16;73.33;100359.31;5097577;28;20032;-81
2022/12/03 05:33:05;;;;;;;27.38;14.77;;;;;;;3.22;72.87;100360.34;5101515;27;20032;-83
2022/12/03 05:35:30;;;;;;;27.42;13.68;;;;;;;3.26;73.13;100358.91;5098176;28;20031;-81
2022/12/03 05:37:55;;;;;;;32.00;15.25;;;;;;;3.23;72.87;100357.47;5097947;28;20428;-83
2022/12/03 05:40:21;;;;;;;29.55;14.18;;;;;;;3.10;73.55;100360.94;5100072;28;20496;-81
2022/12/03 05:42:52;;;;;;;28.55;14.68;;;;;;;2.79;74.40;100362.22;5099085;28;20054;-81
2022/12/03 05:45:18;;;;;;;30.00;14.13;;;;;;;2.85;73.58;100364.13;5097776;28;20039;-82
2022/12/03 05:47:43;;;;;;;32.67;16.40;;;;;;;2.97;73.74;100363.56;5099726;28;20020;-82
2022/12/03 05:50:09;;;;;;;30.60;14.52;;;;;;;3.00;74.06;100368.56;5100265;28;20122;-83
2022/12/03 05:52:34;;;;;;;26.30;13.32;;;;;;;3.10;73.96;100369.03;5099876;28;20024;-81
2022/12/03 05:54:59;;;;;;;33.75;15.50;;;;;;;3.06;73.92;100362.38;5097743;28;20043;-81
2022/12/03 05:57:25;;;;;;;32.15;14.88;;;;;;;3.13;74.00;100360.53;5100374;28;20035;-81
2022/12/03 05:59:50;;;;;;;31.37;16.80;;;;;;;3.04;74.01;100353.66;5099307;28;20120;-81
2022/12/03 06:02:15;;;;;;;24.40;14.50;;;;;;;3.03;73.41;100370.88;5099849;28;20276;-81
2022/12/03 06:04:40;;;;;;;29.20;14.43;;;;;;;3.16;73.35;100367.38;5100386;28;20491;-81
2022/12/03 06:07:06;;;;;;;26.60;14.70;;;;;;;3.17;73.00;100369.06;5098863;28;20283;-82
2022/12/03 06:09:31;;;;;;;21.98;12.00;;;;;;;3.24;72.80;100369.91;5099864;28;20704;-82
2022/12/03 06:11:56;;;;;;;24.63;13.20;;;;;;;3.18;72.67;100369.88;5099195;28;20440;-82
2022/12/03 06:14:21;;;;;;;33.70;17.05;;;;;;;3.07;73.33;100365.91;5099555;28;20725;-82
2022/12/03 06:16:47;;;;;;;23.27;14.03;;;;;;;2.92;73.01;100372.25;5097049;28;20034;-81
2022/12/03 06:19:12;;;;;;;30.80;15.60;;;;;;;2.83;73.17;100382.34;5101517;28;20323;-81
2022/12/03 06:21:37;;;;;;;20.70;12.45;;;;;;;2.90;73.45;100366.22;5100048;28;20263;-82
2022/12/03 06:24:02;;;;;;;27.50;14.83;;;;;;;3.00;73.05;100368.56;5100436;28;20401;-82
2022/12/03 06:26:29;;;;;;;28.30;14.48;;;;;;;3.10;72.98;100365.50;5099478;28;20260;-82
2022/12/03 06:28:54;;;;;;;30.15;14.93;;;;;;;3.17;71.77;100365.53;5100218;28;20440;-81
2022/12/03 06:31:20;;;;;;;32.42;16.08;;;;;;;3.02;72.26;100361.09;5097553;28;20042;-81
2022/12/03 06:33:45;;;;;;;23.95;13.43;;;;;;;3.01;72.42;100352.19;5095837;28;20020;-82
2022/12/03 06:36:10;;;;;;;26.77;13.67;;;;;;;2.99;72.68;100351.53;5097788;28;20024;-81
2022/12/03 06:38:35;;;;;;;26.38;13.77;;;;;;;3.00;72.74;100347.84;5101161;28;20807;-82
2022/12/03 06:41:01;;;;;;;26.77;14.30;;;;;;;2.97;72.74;100350.09;5096757;28;20054;-81
2022/12/03 06:43:26;;;;;;;27.20;13.47;;;;;;;2.88;72.98;100350.28;5097975;28;20684;-82
2022/12/03 06:45:51;;;;;;;23.13;11.82;;;;;;;2.77;72.78;100348.13;5097002;27;20261;-80
2022/12/03 06:48:17;;;;;;;26.65;14.68;;;;;;;2.83;73.01;100351.91;5097676;28;20331;-81
2022/12/03 06:50:42;;;;;;;26.63;12.10;;;;;;;2.78;72.49;100360.56;5098446;28;20070;-81
2022/12/03 06:53:07;;;;;;;26.03;12.33;;;;;;;2.80;73.02;100363.91;5097021;28;20710;-81
2022/12/03 06:55:32;;;;;;;26.53;12.13;;;;;;;2.64;72.69;100363.19;5096807;28;20580;-81
2022/12/03 06:57:58;;;;;;;23.07;13.00;;;;;;;2.76;72.87;100363.47;5099250;28;20251;-82
2022/12/03 07:00:23;;;;;;;22.33;11.83;;;;;;;2.72;73.30;100366.75;5096503;28;20951;-81
2022/12/03 07:02:48;;;;;;;27.52;11.73;;;;;;;2.62;73.39;100362.56;5096069;28;20240;-81
2022/12/03 07:05:14;;;;;;;27.42;14.27;;;;;;;2.64;73.56;100360.50;5099444;28;20110;-81
2022/12/03 07:07:39;;;;;;;25.13;12.38;;;;;;;2.67;73.27;100361.94;5097192;28;20483;-81
2022/12/03 07:10:05;;;;;;;31.57;16.67;;;;;;;2.33;74.39;100364.41;5097710;28;20070;-81
2022/12/03 07:12:31;;;;;;;29.05;16.88;;;;;;;2.49;74.50;100374.03;5096650;28;20741;-81
2022/12/03 07:14:56;;;;;;;22.30;13.77;;;;;;;2.72;73.95;100362.19;5100343;28;20097;-81
2022/12/03 07:17:22;;;;;;;28.55;14.77;;;;;;;2.88;73.27;100361.03;5098496;28;20449;-81
2022/12/03 07:19:47;;;;;;;33.67;14.20;;;;;;;3.00;72.73;100357.78;5097800;28;20067;-81
2022/12/03 07:22:12;;;;;;;26.85;14.52;;;;;;;2.91;72.62;100366.03;5097160;28;20492;-81
2022/12/03 07:24:37;;;;;;;25.87;13.43;;;;;;;3.00;72.38;100360.47;5099049;28;20051;-82
2022/12/03 07:27:03;;;;;;;26.13;14.75;;;;;;;2.89;72.71;100370.78;5097977;28;20625;-83
2022/12/03 07:29:28;;;;;;;29.80;15.73;;;;;;;2.68;73.16;100367.13;5097959;28;20412;-82
2022/12/03 07:31:53;;;;;;;33.63;15.73;;;;;;;2.77;72.95;100358.88;5098491;28;20236;-81
2022/12/03 07:34:18;;;;;;;28.00;12.40;;;;;;;2.85;72.54;100350.66;5097732;28;20054;-82
2022/12/03 07:36:44;;;;;;;28.65;14.77;;;;;;;2.98;72.54;100357.97;5097435;28;20245;-82
2022/12/03 07:39:09;;;;;;;27.67;13.90;;;;;;;2.85;72.62;100356.03;5098572;28;20031;-81
2022/12/03 07:41:34;;;;;;;26.85;14.75;;;;;;;2.91;72.23;100360.63;5097405;28;20271;-85
2022/12/03 07:44:00;;;;;;;24.90;13.47;;;;;;;3.01;72.38;100354.06;5096972;28;20532;-83
2022/12/03 07:46:25;;;;;;;32.97;15.23;;;;;;;2.78;72.09;100364.09;5095871;28;20241;-82
2022/12/03 07:48:50;;;;;;;31.13;15.03;;;;;;;2.98;72.28;100357.97;5097172;28;20028;-80
2022/12/03 07:51:15;;;;;;;30.03;14.70;;;;;;;3.26;72.38;100348.97;5096509;28;20263;-82
2022/12/03 07:53:41;;;;;;;26.05;13.77;;;;;;;3.08;71.90;100354.06;5098884;28;20258;-83
2022/12/03 07:56:06;;;;;;;27.90;14.10;;;;;;;2.85;72.04;100361.41;5098180;28;20054;-84
2022/12/03 07:58:32;;;;;;;28.40;14.52;;;;;;;2.99;71.94;100351.53;5096057;28;20028;-82
2022/12/03 08:00:57;;;;;;;26.40;13.18;;;;;;;2.87;72.74;100353.97;5097693;28;20479;-84
2022/12/03 08:03:22;;;;;;;28.33;13.53;;;;;;;3.15;71.99;100354.97;5097950;28;20411;-79
2022/12/03 08:05:48;;;;;;;35.00;16.38;;;;;;;3.13;71.57;100346.25;5095860;28;20271;-80
2022/12/03 08:08:13;;;;;;;31.02;16.10;;;;;;;3.18;71.43;100348.31;5095577;28;20536;-81
2022/12/03 08:10:38;;;;;;;26.67;14.10;;;;;;;3.21;71.40;100350.63;5097909;28;20482;-81
2022/12/03 08:13:09;;;;;;;37.30;16.80;;;;;;;3.04;71.57;100350.97;5099670;28;20059;-81
2022/12/03 08:15:35;;;;;;;26.30;14.98;;;;;;;3.01;71.65;100349.47;5100718;28;20279;-81
2022/12/03 08:18:11;;;;;;;28.27;13.10;;;;;;;2.99;71.21;100350.75;5102667;28;20081;-79
2022/12/03 08:20:38;;;;;;;26.05;15.10;;;;;;;3.07;71.31;100347.03;5102237;28;20032;-82
2022/12/03 08:23:12;;;;;;;27.35;13.75;;;;;;;3.02;71.87;100350.31;5094775;27;20047;-83
2022/12/03 08:25:38;;;;;;;28.05;15.68;;;;;;;3.11;71.86;100349.13;5096832;28;20031;-80
2022/12/03 08:28:12;;;;;;;34.97;15.93;;;;;;;3.09;71.98;100344.97;5102163;27;20043;-81
2022/12/03 08:30:37;;;;;;;22.48;13.43;;;;;;;2.96;71.68;100343.88;5099679;28;20063;-81
2022/12/03 08:33:23;;;;;;;28.83;14.80;;;;;;;2.93;71.42;100341.56;5100763;27;20442;-82
2022/12/03 08:35:49;;;;;;;25.30;13.52;;;;;;;2.83;71.53;100341.94;5101027;28;20053;-82
2022/12/03 08:38:15;;;;;;;27.63;14.95;;;;;;;3.21;71.38;100342.53;5101031;27;20092;-80
2022/12/03 08:40:44;;;;;;;23.65;14.52;;;;;;;3.23;71.59;100341.31;5100436;28;20028;-80
2022/12/03 08:43:21;;;;;;;25.85;12.48;;;;;;;3.25;71.02;100336.53;5099397;27;20031;-82
2022/12/03 08:45:48;;;;;;;21.23;12.45;;;;;;;3.24;71.00;100337.56;5103068;28;20392;-83
2022/12/03 08:48:28;;;;;;;24.70;13.60;;;;;;;3.25;71.27;100338.41;5102265;27;20047;-82
2022/12/03 08:50:56;;;;;;;29.77;16.42;;;;;;;3.35;71.15;100341.56;5101283;28;20042;-83
2022/12/03 08:53:40;;;;;;;26.23;11.73;;;;;;;3.27;71.03;100337.16;5099316;27;20527;-82
2022/12/03 08:56:23;;;;;;;22.98;11.77;;;;;;;3.12;70.46;100333.78;5103585;27;20131;-85
2022/12/03 08:58:57;;;;;;;24.58;12.82;;;;;;;3.40;70.64;100345.50;5100646;28;20036;-83
2022/12/03 09:01:28;;;;;;;19.75;13.40;;;;;;;3.20;71.23;100347.09;5098679;28;20031;-83
2022/12/03 09:03:55;;;;;;;29.30;16.42;;;;;;;3.41;71.18;100342.59;5101047;27;20073;-85
2022/12/03 09:06:21;;;;;;;33.63;14.15;;;;;;;3.43;70.87;100348.63;5099042;28;20365;-83
2022/12/03 09:08:46;;;;;;;27.67;15.52;;;;;;;3.41;69.79;100347.16;5101400;28;20432;-83
2022/12/03 09:11:13;;;;;;;28.98;17.10;;;;;;;3.33;70.00;100346.31;5101660;28;20039;-82
2022/12/03 09:13:38;;;;;;;24.08;14.82;;;;;;;3.46;70.92;100350.06;5095947;27;20532;-83
2022/12/03 09:16:04;;;;;;;29.42;17.77;;;;;;;3.53;70.69;100344.69;5097146;28;20031;-84
2022/12/03 09:18:29;;;;;;;36.75;21.58;;;;;;;3.29;71.62;100345.06;5100018;28;20054;-81
2022/12/03 09:20:55;;;;;;;39.80;20.98;;;;;;;3.51;71.16;100342.22;5100042;28;20036;-81
2022/12/03 09:23:21;;;;;;;33.53;19.65;;;;;;;3.31;70.88;100347.53;5100557;27;20039;-81
2022/12/03 09:25:46;;;;;;;31.38;16.50;;;;;;;3.55;70.60;100346.16;5096969;28;20024;-81
2022/12/03 09:28:11;;;;;;;60.70;33.40;;;;;;;3.70;70.52;100353.25;5096592;27;20442;-83
2022/12/03 09:30:37;;;;;;;81.43;35.08;;;;;;;3.45;71.12;100348.41;5097924;28;20299;-81
2022/12/03 09:33:02;;;;;;;54.83;26.50;;;;;;;3.52;71.07;100349.25;5100106;28;20438;-82
2022/12/03 09:35:27;;;;;;;42.92;25.85;;;;;;;3.35;71.24;100348.81;5101005;28;20323;-82
2022/12/03 09:37:52;;;;;;;37.10;18.00;;;;;;;3.49;70.85;100357.75;5099273;28;20055;-82
2022/12/03 09:40:18;;;;;;;39.55;18.77;;;;;;;3.55;71.29;100354.25;5098896;28;20253;-82
2022/12/03 09:42:43;;;;;;;41.63;26.00;;;;;;;3.61;71.09;100355.31;5098089;28;20016;-82
2022/12/03 09:45:13;;;;;;;31.42;20.58;;;;;;;3.48;70.56;100350.69;5098904;28;20027;-81
2022/12/03 09:47:42;;;;;;;29.58;16.70;;;;;;;3.54;70.14;100347.19;5099874;28;20020;-83
2022/12/03 09:50:19;;;;;;;31.15;20.00;;;;;;;3.68;70.44;100347.25;5100696;28;20015;-83
2022/12/03 09:52:45;;;;;;;27.35;14.95;;;;;;;3.70;70.53;100345.16;5097094;28;20480;-83
2022/12/03 09:55:15;;;;;;;34.95;17.13;;;;;;;3.67;70.87;100340.16;5099689;28;20372;-83
2022/12/03 09:57:41;;;;;;;23.92;13.65;;;;;;;3.70;70.71;100345.97;5099673;28;20085;-83
2022/12/03 10:00:15;;;;;;;40.42;16.35;;;;;;;3.67;70.79;100334.78;5098794;28;20410;-83
2022/12/03 10:02:41;;;;;;;29.85;14.55;;;;;;;3.83;70.15;100342.47;5100521;28;20053;-83
2022/12/03 10:05:07;;;;;;;24.73;14.57;;;;;;;3.71;70.33;100341.41;5098100;28;20032;-83
2022/12/03 10:07:32;;;;;;;31.75;15.98;;;;;;;3.70;70.51;100339.78;5099236;28;20015;-82
2022/12/03 10:09:57;;;;;;;37.72;16.50;;;;;;;3.76;70.43;100330.03;5099361;28;20027;-83
2022/12/03 10:12:23;;;;;;;26.52;14.85;;;;;;;3.56;71.31;100337.03;5098461;28;20024;-82
2022/12/03 10:14:48;;;;;;;26.85;15.45;;;;;;;3.70;70.27;100334.38;5099448;28;20112;-83
2022/12/03 10:17:14;;;;;;;29.42;15.73;;;;;;;3.70;71.50;100320.91;5100813;28;20035;-82
2022/12/03 10:19:41;;;;;;;33.38;15.85;;;;;;;3.70;71.03;100323.59;5099429;28;20068;-83
2022/12/03 10:22:07;;;;;;;27.15;15.15;;;;;;;3.71;70.76;100325.25;5099340;28;20027;-84
2022/12/03 10:24:34;;;;;;;25.20;15.05;;;;;;;3.64;70.50;100325.22;5098382;28;20027;-82
2022/12/03 10:27:01;;;;;;;24.55;14.95;;;;;;;3.68;70.68;100314.88;5099429;28;20027;-82
2022/12/03 10:29:29;;;;;;;31.15;14.85;;;;;;;3.58;70.56;100308.00;5099714;28;20059;-82
2022/12/03 10:32:07;;;;;;;30.27;14.80;;;;;;;3.72;70.59;100305.34;5097238;28;20489;-81
2022/12/03 10:34:35;;;;;;;30.23;15.88;;;;;;;3.66;70.93;100298.06;5099131;28;20029;-86
2022/12/03 10:37:11;;;;;;;31.20;16.80;;;;;;;3.58;71.36;100302.59;5099521;28;20048;-82
2022/12/03 10:40:07;;;;;;;25.92;14.23;;;;;;;3.83;70.81;100296.63;5098794;28;20024;-83
2022/12/03 10:42:39;;;;;;;39.33;16.35;;;;;;;3.84;69.84;100290.16;5098209;28;20030;-83
2022/12/03 10:45:21;;;;;;;30.58;17.23;;;;;;;3.94;69.63;100284.38;5098528;28;20493;-81
2022/12/03 10:48:11;;;;;;;29.10;16.58;;;;;;;3.88;70.11;100287.06;5096345;28;20062;-81
2022/12/03 10:50:44;;;;;;;25.60;14.43;;;;;;;3.83;70.34;100285.81;5097839;28;20042;-81
2022/12/03 10:53:10;;;;;;;28.20;13.27;;;;;;;3.97;69.83;100269.63;5097347;28;20039;-81
2022/12/03 10:55:39;;;;;;;28.10;13.55;;;;;;;3.89;70.14;100272.53;5097497;28;20035;-81
2022/12/03 10:58:05;;;;;;;26.75;14.70;;;;;;;3.79;70.55;100273.78;5099969;28;20038;-82
2022/12/03 11:00:30;;;;;;;27.92;13.68;;;;;;;3.89;70.76;100270.69;5095948;28;20396;-82
2022/12/03 11:02:56;;;;;;;27.63;13.75;;;;;;;3.91;69.52;100265.91;5098237;28;20036;-81
2022/12/03 11:05:26;;;;;;;26.33;14.57;;;;;;;3.97;69.47;100259.69;5095868;28;20031;-83
2022/12/03 11:07:51;;;;;;;21.98;12.48;;;;;;;3.90;69.11;100253.47;5099887;28;20038;-81
2022/12/03 11:10:18;;;;;;;26.27;13.88;;;;;;;3.97;69.33;100254.28;5098514;28;20031;-82
2022/12/03 11:13:22;;;;;;;26.55;14.60;;;;;;;3.96;68.72;100257.19;5095436;28;20047;-82
2022/12/03 11:15:49;;;;;;;34.70;20.83;;;;;;;3.92;68.63;100261.34;5096528;28;20028;-83
2022/12/03 11:18:36;;;;;;;31.08;16.35;;;;;;;3.90;69.76;100258.03;5099007;28;20036;-82
2022/12/03 11:21:04;;;;;;;22.95;13.50;;;;;;;3.56;70.57;100258.03;5098951;28;20113;-82
2022/12/03 11:23:47;;;;;;;32.42;16.60;;;;;;;3.65;69.26;100258.63;5097712;28;20066;-87
2022/12/03 11:26:28;;;;;;;76.63;35.63;;;;;;;3.79;69.87;100254.91;5097088;28;20066;-83
2022/12/03 11:28:59;;;;;;;63.03;27.15;;;;;;;3.25;71.04;100255.66;5099489;28;20147;-82
2022/12/03 11:31:45;;;;;;;43.35;25.52;;;;;;;2.83;72.36;100247.66;5094595;28;20032;-83